Terminal Aerodrome Forecast
Issued by NWS

Home | Current Version | Previous Version | Text Only | Print | Product List | Glossary On
Versions: 1 2 3 4 5 6 7 8 9 10 11 12 13
000
FTUS46 KSEW 051120
TAFOLM
TAF
KOLM 051120Z 0512/0612 00000KT P6SM SCT026 OVC060
      TEMPO 0512/0516 BKN026 OVC060
     FM051700 36006KT P6SM SCT025 BKN050
     FM052100 03008KT P6SM SCT050
     FM060600 00000KT P6SM SCT250=

USA.gov is the U.S. government's official web portal to all federal, state and local government web resources and services.